createdAt,value
2022-08-10T00:01:56.116Z,27.24
2022-08-10T00:04:29.094Z,27.23
2022-08-10T00:07:02.107Z,27.23
2022-08-10T00:09:35.045Z,27.22
2022-08-10T00:12:08.031Z,27.21
2022-08-10T00:14:41.073Z,27.20
2022-08-10T00:17:28.065Z,27.20
2022-08-10T00:20:02.567Z,27.19
2022-08-10T00:22:34.215Z,27.19
2022-08-10T00:25:13.104Z,27.18
2022-08-10T00:27:58.783Z,27.18
2022-08-10T00:30:19.107Z,27.17
2022-08-10T00:32:52.168Z,27.17
2022-08-10T00:35:25.100Z,27.16
2022-08-10T00:37:58.282Z,27.16
2022-08-10T00:40:37.092Z,27.15
2022-08-10T00:43:04.118Z,27.15
2022-08-10T00:45:37.098Z,27.14
2022-08-10T00:48:10.163Z,27.13
2022-08-10T00:50:43.091Z,27.13
2022-08-10T00:53:18.052Z,27.12
2022-08-10T00:57:12.439Z,27.12
2022-08-10T00:58:24.186Z,27.11
2022-08-10T01:00:57.183Z,27.11
2022-08-10T01:04:54.402Z,27.10
2022-08-10T01:06:03.156Z,27.10
2022-08-10T01:08:36.184Z,27.10
2022-08-10T01:12:31.370Z,27.09
2022-08-10T01:13:42.182Z,27.09
2022-08-10T01:16:15.211Z,27.08
2022-08-10T01:18:48.201Z,27.08
2022-08-10T01:21:20.949Z,27.07
2022-08-10T01:23:54.169Z,27.07
2022-08-10T01:26:31.202Z,27.06
2022-08-10T01:29:00.214Z,27.05
2022-08-10T01:31:33.168Z,27.05
2022-08-10T01:34:05.877Z,27.04
2022-08-10T01:36:39.217Z,27.03
2022-08-10T01:39:12.246Z,27.02
2022-08-10T01:41:46.576Z,27.01
2022-08-10T01:44:20.030Z,27.01
2022-08-10T01:46:56.587Z,27.00
2022-08-10T01:49:24.205Z,26.99
2022-08-10T01:52:00.678Z,26.98
2022-08-10T01:54:30.241Z,26.98
2022-08-10T01:57:06.193Z,26.97
2022-08-10T01:59:39.281Z,26.96
2022-08-10T02:02:12.200Z,26.96
2022-08-10T02:04:45.220Z,26.95
2022-08-10T02:07:18.248Z,26.94
2022-08-10T02:09:51.302Z,26.93
2022-08-10T02:12:24.281Z,26.93
2022-08-10T02:14:57.239Z,26.92
2022-08-10T02:17:59.031Z,26.92
2022-08-10T02:20:03.209Z,26.91
2022-08-10T02:22:39.067Z,26.91
2022-08-10T02:25:09.339Z,26.90
2022-08-10T02:27:42.240Z,26.90
2022-08-10T02:30:15.241Z,26.89
2022-08-10T02:32:52.937Z,26.89
2022-08-10T02:35:22.305Z,26.88
2022-08-10T02:37:54.268Z,26.88
2022-08-10T02:42:18.762Z,26.87
2022-08-10T02:45:18.931Z,26.86
2022-08-10T02:45:33.845Z,26.85
2022-08-10T02:48:06.368Z,26.85
2022-08-10T02:50:39.066Z,26.84
2022-08-10T02:53:54.241Z,26.84
2022-08-10T02:55:59.296Z,26.83
2022-08-10T02:58:32.328Z,26.82
2022-08-10T03:01:05.399Z,26.82
2022-08-10T03:03:38.301Z,26.81
2022-08-10T03:06:11.340Z,26.81
2022-08-10T03:08:44.267Z,26.80
2022-08-10T03:11:17.379Z,26.80
2022-08-10T03:13:59.632Z,26.79
2022-08-10T03:16:23.380Z,26.78
2022-08-10T03:18:56.344Z,26.78
2022-08-10T03:21:29.347Z,26.77
2022-08-10T03:24:02.352Z,26.77
2022-08-10T03:26:35.312Z,26.76
2022-08-10T03:29:08.207Z,26.76
2022-08-10T03:31:41.368Z,26.75
2022-08-10T03:34:20.118Z,26.75
2022-08-10T03:36:47.390Z,26.74
2022-08-10T03:39:20.436Z,26.74
2022-08-10T03:41:59.361Z,26.73
2022-08-10T03:44:32.457Z,26.72
2022-08-10T03:47:16.410Z,26.72
2022-08-10T03:49:38.435Z,26.71
2022-08-10T03:52:11.404Z,26.70
2022-08-10T03:54:44.393Z,26.69
2022-08-10T03:57:17.395Z,26.69
2022-08-10T03:59:50.438Z,26.68
2022-08-10T04:02:43.820Z,26.67
2022-08-10T04:04:56.362Z,26.66
2022-08-10T04:07:29.413Z,26.66
2022-08-10T04:10:02.416Z,26.65
2022-08-10T04:12:35.580Z,26.65
2022-08-10T04:15:08.442Z,26.64
2022-08-10T04:18:03.061Z,26.64
2022-08-10T04:20:14.429Z,26.63
2022-08-10T04:22:47.425Z,26.62
2022-08-10T04:25:20.428Z,26.62
2022-08-10T04:27:53.453Z,26.61
2022-08-10T04:30:27.798Z,26.60
2022-08-10T04:32:59.485Z,26.60
2022-08-10T04:35:32.444Z,26.59
2022-08-10T04:38:05.156Z,26.58
2022-08-10T04:40:38.246Z,26.57
2022-08-10T04:43:13.136Z,26.55
2022-08-10T04:45:48.647Z,26.53
2022-08-10T04:48:43.376Z,26.51
2022-08-10T04:50:50.487Z,26.49
2022-08-10T04:53:23.186Z,26.47
2022-08-10T04:55:56.270Z,26.45
2022-08-10T04:58:29.187Z,26.43
2022-08-10T05:01:02.354Z,26.42
2022-08-10T05:03:35.502Z,26.40
2022-08-10T05:06:08.545Z,26.39
2022-08-10T05:08:41.429Z,26.37
2022-08-10T05:11:23.770Z,26.36
2022-08-10T05:13:47.506Z,26.34
2022-08-10T05:16:31.538Z,26.33
2022-08-10T05:18:53.478Z,26.31
2022-08-10T05:22:02.463Z,26.31
2022-08-10T05:23:59.316Z,26.30
2022-08-10T05:26:32.208Z,26.30
2022-08-10T05:29:05.468Z,26.30
2022-08-10T05:31:38.587Z,26.29
2022-08-10T05:34:20.786Z,26.30
2022-08-10T05:36:44.297Z,26.30
2022-08-10T05:39:17.633Z,26.30
2022-08-10T05:41:52.949Z,26.30
2022-08-10T05:44:23.519Z,26.30
2022-08-10T05:46:56.511Z,26.30
2022-08-10T05:49:29.564Z,26.30
2022-08-10T05:52:02.537Z,26.30
2022-08-10T05:54:35.606Z,26.30
2022-08-10T05:57:08.565Z,26.30
2022-08-10T06:00:30.732Z,26.30
2022-08-10T06:02:33.033Z,26.31
2022-08-10T06:04:47.560Z,26.31
2022-08-10T06:07:21.869Z,26.31
2022-08-10T06:09:59.585Z,26.32
2022-08-10T06:12:29.518Z,26.32
2022-08-10T06:14:59.985Z,26.32
2022-08-10T06:17:32.591Z,26.33
2022-08-10T06:20:05.561Z,26.34
2022-08-10T06:22:38.430Z,26.35
2022-08-10T06:25:51.030Z,26.35
2022-08-10T06:27:44.635Z,26.35
2022-08-10T06:30:20.310Z,26.35
2022-08-10T06:32:50.663Z,26.35
2022-08-10T06:35:23.604Z,26.35
2022-08-10T06:37:56.717Z,26.36
2022-08-10T06:40:29.759Z,26.37
2022-08-10T06:43:16.617Z,26.39
2022-08-10T06:46:07.570Z,26.40
2022-08-10T06:48:22.666Z,26.42
2022-08-10T06:50:58.580Z,26.44
2022-08-10T06:53:53.401Z,26.46
2022-08-10T06:56:01.649Z,26.48
2022-08-10T06:58:34.603Z,26.49
2022-08-10T07:01:07.720Z,26.51
2022-08-10T07:03:40.608Z,26.52
2022-08-10T07:06:13.668Z,26.54
2022-08-10T07:08:46.661Z,26.56
2022-08-10T07:11:19.646Z,26.57
2022-08-10T07:14:16.288Z,26.59
2022-08-10T07:16:25.747Z,26.60
2022-08-10T07:18:58.548Z,26.62
2022-08-10T07:21:31.689Z,26.64
2022-08-10T07:24:08.096Z,26.65
2022-08-10T07:26:40.785Z,26.67
2022-08-10T07:29:52.867Z,26.68
2022-08-10T07:31:56.480Z,26.70
2022-08-10T07:34:28.537Z,26.71
2022-08-10T07:36:52.666Z,26.72
2022-08-10T07:39:58.084Z,26.74
2022-08-10T07:41:58.610Z,26.75
2022-08-10T07:44:31.649Z,26.77
2022-08-10T07:47:04.705Z,26.78
2022-08-10T07:49:37.699Z,26.80
2022-08-10T07:52:10.751Z,26.81
2022-08-10T07:54:43.702Z,26.82
2022-08-10T07:57:30.872Z,26.83
2022-08-10T07:59:49.748Z,26.85
2022-08-10T08:02:22.695Z,26.86
2022-08-10T08:04:55.798Z,26.87
2022-08-10T08:07:28.800Z,26.88
2022-08-10T08:10:01.731Z,26.89
2022-08-10T08:12:36.894Z,26.90
2022-08-10T08:16:14.475Z,26.91
2022-08-10T08:17:40.796Z,26.92
2022-08-10T08:20:13.675Z,26.93
2022-08-10T08:24:07.517Z,26.94
2022-08-10T08:25:19.663Z,26.95
2022-08-10T08:27:52.559Z,26.96
2022-08-10T08:30:27.785Z,26.97
2022-08-10T08:32:58.825Z,26.97
2022-08-10T08:35:31.496Z,26.98
2022-08-10T08:38:29.908Z,26.98
2022-08-10T08:40:37.473Z,26.98
2022-08-10T08:43:10.848Z,26.99
2022-08-10T08:45:54.072Z,26.99
2022-08-10T08:48:16.868Z,26.99
2022-08-10T08:50:53.995Z,27.00
2022-08-10T08:53:22.998Z,27.00
2022-08-10T08:56:05.749Z,27.00
2022-08-10T08:58:28.793Z,27.01
2022-08-10T09:01:01.510Z,27.01
2022-08-10T09:03:34.528Z,27.01
2022-08-10T09:06:07.522Z,27.02
2022-08-10T09:08:40.559Z,27.02
2022-08-10T09:11:13.878Z,27.02
2022-08-10T09:13:46.876Z,27.03
2022-08-10T09:16:19.637Z,27.03
2022-08-10T09:18:52.667Z,27.03
2022-08-10T09:21:25.607Z,27.04
2022-08-10T09:24:04.646Z,27.04
2022-08-10T09:26:31.574Z,27.05
2022-08-10T09:29:11.831Z,27.06
2022-08-10T09:31:39.375Z,27.06
2022-08-10T09:36:23.865Z,27.07
2022-08-10T09:36:43.645Z,27.07
2022-08-10T09:40:56.668Z,27.08
2022-08-10T09:41:49.802Z,27.08
2022-08-10T09:44:22.708Z,27.09
2022-08-10T09:46:55.702Z,27.09
2022-08-10T09:49:53.407Z,27.10
2022-08-10T09:52:01.579Z,27.11
2022-08-10T09:54:34.623Z,27.11
2022-08-10T09:57:43.220Z,27.12
2022-08-10T09:59:59.905Z,27.13
2022-08-10T10:05:03.597Z,27.14
2022-08-10T10:07:36.868Z,27.14
2022-08-10T10:10:09.704Z,27.15
2022-08-10T10:12:48.649Z,27.15
2022-08-10T10:15:25.285Z,27.16
2022-08-10T10:17:54.657Z,27.16
2022-08-10T10:20:27.663Z,27.16
2022-08-10T10:23:00.888Z,27.17
2022-08-10T10:25:50.089Z,27.17
2022-08-10T10:28:07.444Z,27.18
2022-08-10T10:30:40.757Z,27.18
2022-08-10T10:33:14.395Z,27.18
2022-08-10T10:35:46.728Z,27.18
2022-08-10T10:38:19.947Z,27.19
2022-08-10T10:40:52.769Z,27.19
2022-08-10T10:43:25.939Z,27.19
2022-08-10T10:45:58.952Z,27.19
2022-08-10T10:48:31.932Z,27.20
2022-08-10T10:51:10.276Z,27.20
2022-08-10T10:53:37.962Z,27.20
2022-08-10T10:56:15.344Z,27.21
2022-08-10T10:58:43.935Z,27.21
2022-08-10T11:01:16.735Z,27.22
2022-08-10T11:03:49.671Z,27.22
2022-08-10T11:06:30.297Z,27.22
2022-08-10T11:08:56.067Z,27.22
2022-08-10T11:12:00.827Z,27.22
2022-08-10T11:14:26.144Z,27.22
2022-08-10T11:16:35.009Z,27.23
2022-08-10T11:19:07.697Z,27.23
2022-08-10T11:21:40.847Z,27.23
2022-08-10T11:24:47.492Z,27.24
2022-08-10T11:26:46.856Z,27.24
2022-08-10T11:29:19.754Z,27.24
2022-08-10T11:31:52.799Z,27.25
2022-08-10T11:34:48.315Z,27.26
2022-08-10T11:36:58.788Z,27.27
2022-08-10T11:39:31.764Z,27.28
2022-08-10T11:42:09.258Z,27.30
2022-08-10T11:44:37.735Z,27.31
2022-08-10T11:47:10.778Z,27.33
2022-08-10T11:49:44.971Z,27.34
2022-08-10T11:52:17.753Z,27.36
2022-08-10T11:54:50.966Z,27.37
2022-08-10T11:57:23.920Z,27.39
2022-08-10T11:59:57.994Z,27.40
2022-08-10T12:02:29.868Z,27.41
2022-08-10T12:05:02.800Z,27.42
2022-08-10T12:10:01.570Z,27.43
2022-08-10T12:10:13.394Z,27.44
2022-08-10T12:12:41.872Z,27.45
2022-08-10T12:15:14.775Z,27.46
2022-08-10T12:17:47.883Z,27.47
2022-08-10T12:20:20.888Z,27.48
2022-08-10T12:22:53.846Z,27.49
2022-08-10T12:25:57.945Z,27.50
2022-08-10T12:28:01.784Z,27.51
2022-08-10T12:30:34.835Z,27.52
2022-08-10T12:33:07.973Z,27.53
2022-08-10T12:35:56.138Z,27.53
2022-08-10T12:38:13.924Z,27.54
2022-08-10T12:40:46.912Z,27.55
2022-08-10T12:44:04.884Z,27.56
2022-08-10T12:45:52.935Z,27.57
2022-08-10T12:48:31.164Z,27.57
2022-08-10T12:50:58.831Z,27.58
2022-08-10T12:53:31.822Z,27.59
2022-08-10T12:56:04.857Z,27.60
2022-08-10T12:58:59.456Z,27.60
2022-08-10T13:01:16.669Z,27.61
2022-08-10T13:04:23.099Z,27.61
2022-08-10T13:06:17.067Z,27.61
2022-08-10T13:08:49.965Z,27.62
2022-08-10T13:12:37.310Z,27.63
2022-08-10T13:13:56.020Z,27.63
2022-08-10T13:16:31.134Z,27.64
2022-08-10T13:19:01.966Z,27.64
2022-08-10T13:21:34.972Z,27.65
2022-08-10T13:24:07.897Z,27.65
2022-08-10T13:27:10.902Z,27.66
2022-08-10T13:29:13.953Z,27.66
2022-08-10T13:32:09.061Z,27.66
2022-08-10T13:34:43.997Z,27.65
2022-08-10T13:36:52.933Z,27.64
2022-08-10T13:39:26.152Z,27.64
2022-08-10T13:41:58.946Z,27.63
2022-08-10T13:44:32.191Z,27.62
2022-08-10T13:47:04.939Z,27.61
2022-08-10T13:49:37.896Z,27.61
2022-08-10T13:52:11.022Z,27.61
2022-08-10T13:54:44.026Z,27.61
2022-08-10T13:57:17.040Z,27.61
2022-08-10T14:00:34.473Z,27.62
2022-08-10T14:02:23.065Z,27.62
2022-08-10T14:04:55.981Z,27.63
2022-08-10T14:07:29.235Z,27.63
2022-08-10T14:10:02.122Z,27.64
2022-08-10T14:12:35.097Z,27.64
2022-08-10T14:15:08.046Z,27.65
2022-08-10T14:17:44.717Z,27.65
2022-08-10T14:20:17.979Z,27.66
2022-08-10T14:22:47.028Z,27.66
2022-08-10T14:25:19.975Z,27.67
2022-08-10T14:28:03.546Z,27.68
2022-08-10T14:30:30.824Z,27.69
2022-08-10T14:33:01.045Z,27.69
2022-08-10T14:36:20.991Z,27.70
2022-08-10T14:38:07.021Z,27.71
2022-08-10T14:40:40.132Z,27.72
2022-08-10T14:43:12.992Z,27.73
2022-08-10T14:45:46.265Z,27.74
2022-08-10T14:48:19.135Z,27.74
2022-08-10T14:50:55.748Z,27.75
2022-08-10T14:53:26.860Z,27.76
2022-08-10T14:56:01.054Z,27.77
2022-08-10T14:58:31.132Z,27.78
2022-08-10T15:01:04.110Z,27.79
2022-08-10T15:03:59.184Z,27.80
2022-08-10T15:06:18.516Z,27.80
2022-08-10T15:08:51.018Z,27.81
2022-08-10T15:12:14.126Z,27.82
2022-08-10T15:14:29.430Z,27.83
2022-08-10T15:16:44.150Z,27.83
2022-08-10T15:20:00.796Z,27.84
2022-08-10T15:21:50.177Z,27.84
2022-08-10T15:24:27.357Z,27.83
2022-08-10T15:26:57.802Z,27.83
2022-08-10T15:29:29.295Z,27.82
2022-08-10T15:32:02.056Z,27.81
2022-08-10T15:34:35.246Z,27.80
2022-08-10T15:37:39.364Z,27.81
2022-08-10T15:40:21.270Z,27.81
2022-08-10T15:42:28.217Z,27.82
2022-08-10T15:45:01.081Z,27.83
2022-08-10T15:47:45.149Z,27.84
2022-08-10T15:50:07.132Z,27.85
2022-08-10T15:53:01.195Z,27.86
2022-08-10T15:55:43.571Z,27.88
2022-08-10T15:57:46.219Z,27.89
2022-08-10T16:00:19.237Z,27.90
2022-08-10T16:02:52.387Z,27.91
2022-08-10T16:06:00.429Z,27.93
2022-08-10T16:07:58.109Z,27.94
2022-08-10T16:10:31.165Z,27.95
2022-08-10T16:13:50.858Z,27.97
2022-08-10T16:15:37.103Z,27.98
2022-08-10T16:18:10.198Z,27.99
2022-08-10T16:20:53.051Z,28.00
2022-08-10T16:23:16.295Z,28.01
2022-08-10T16:25:53.492Z,28.03
2022-08-10T16:28:23.879Z,28.03
2022-08-10T16:30:55.459Z,28.05
2022-08-10T16:33:53.838Z,28.06
2022-08-10T16:36:01.437Z,28.07
2022-08-10T16:38:34.419Z,28.08
2022-08-10T16:41:07.359Z,28.08
2022-08-10T16:43:40.540Z,28.09
2022-08-10T16:46:13.494Z,28.10
2022-08-10T16:48:49.847Z,28.11
2022-08-10T16:51:21.540Z,28.12
2022-08-10T16:53:54.480Z,28.13
2022-08-10T16:56:27.309Z,28.13
2022-08-10T16:59:00.502Z,28.14
2022-08-10T17:01:33.639Z,28.15
2022-08-10T17:04:09.907Z,28.16
2022-08-10T17:06:39.584Z,28.17
2022-08-10T17:09:12.207Z,28.18
2022-08-10T17:11:45.532Z,28.18
2022-08-10T17:14:18.541Z,28.19
2022-08-10T17:16:51.541Z,28.20
2022-08-10T17:19:24.610Z,28.21
2022-08-10T17:21:57.346Z,28.22
2022-08-10T17:24:30.501Z,28.22
2022-08-10T17:28:04.533Z,28.23
2022-08-10T17:29:58.949Z,28.24
2022-08-10T17:32:09.228Z,28.24
2022-08-10T17:34:42.465Z,28.25
2022-08-10T17:37:15.241Z,28.26
2022-08-10T17:39:48.642Z,28.26
2022-08-10T17:42:27.460Z,28.27
2022-08-10T17:45:00.617Z,28.27
2022-08-10T17:47:33.421Z,28.26
2022-08-10T17:50:06.285Z,28.26
2022-08-10T17:52:39.340Z,28.25
2022-08-10T17:55:12.301Z,28.24
2022-08-10T17:57:45.263Z,28.23
2022-08-10T18:00:18.597Z,28.22
2022-08-10T18:02:51.486Z,28.21
2022-08-10T18:05:24.263Z,28.20
2022-08-10T18:07:57.399Z,28.19
2022-08-10T18:10:30.379Z,28.18
2022-08-10T18:13:03.506Z,28.18
2022-08-10T18:15:36.595Z,28.17
2022-08-10T18:18:09.285Z,28.16
2022-08-10T18:20:42.461Z,28.15
2022-08-10T18:23:15.314Z,28.14
2022-08-10T18:25:48.490Z,28.14
2022-08-10T18:28:21.478Z,28.13
2022-08-10T18:30:54.564Z,28.13
2022-08-10T18:33:27.439Z,28.12
2022-08-10T18:36:00.358Z,28.11
2022-08-10T18:38:33.372Z,28.10
2022-08-10T18:41:06.335Z,28.10
2022-08-10T18:44:06.352Z,28.09
2022-08-10T18:46:12.373Z,28.09
2022-08-10T18:48:45.795Z,28.08
2022-08-10T18:51:19.449Z,28.08
2022-08-10T18:53:52.399Z,28.08
2022-08-10T18:56:25.385Z,28.07
2022-08-10T18:59:02.197Z,28.07
2022-08-10T19:01:31.415Z,28.06
2022-08-10T19:04:04.496Z,28.05
2022-08-10T19:06:37.610Z,28.04
2022-08-10T19:09:42.147Z,28.02
2022-08-10T19:11:43.423Z,28.01
2022-08-10T19:14:16.375Z,28.00
2022-08-10T19:16:49.391Z,27.99
2022-08-10T19:19:22.932Z,27.98
2022-08-10T19:21:55.408Z,27.97
2022-08-10T19:24:28.499Z,27.96
2022-08-10T19:27:01.482Z,27.95
2022-08-10T19:30:07.953Z,27.93
2022-08-10T19:32:09.302Z,27.92
2022-08-10T19:34:42.422Z,27.91
2022-08-10T19:37:15.910Z,27.90
2022-08-10T19:39:50.305Z,27.88
2022-08-10T19:42:21.698Z,27.86
2022-08-10T19:44:54.437Z,27.85
2022-08-10T19:47:27.631Z,27.83
2022-08-10T19:50:00.545Z,27.82
2022-08-10T19:52:33.679Z,27.81
2022-08-10T19:55:06.457Z,27.80
2022-08-10T19:57:39.704Z,27.80
2022-08-10T20:00:19.390Z,27.80
2022-08-10T20:02:45.761Z,27.80
2022-08-10T20:05:18.845Z,27.80
2022-08-10T20:07:51.727Z,27.80
2022-08-10T20:10:24.721Z,27.80
2022-08-10T20:12:57.715Z,27.81
2022-08-10T20:15:30.805Z,27.81
2022-08-10T20:18:04.173Z,27.81
2022-08-10T20:20:37.506Z,27.82
2022-08-10T20:23:10.492Z,27.82
2022-08-10T20:25:43.828Z,27.82
2022-08-10T20:28:16.626Z,27.83
2022-08-10T20:30:49.479Z,27.83
2022-08-10T20:33:22.596Z,27.83
2022-08-10T20:35:55.599Z,27.83
2022-08-10T20:38:28.938Z,27.83
2022-08-10T20:41:01.642Z,27.82
2022-08-10T20:43:34.656Z,27.81
2022-08-10T20:46:09.163Z,27.80
2022-08-10T20:48:40.718Z,27.79
2022-08-10T20:51:13.490Z,27.78
2022-08-10T20:53:46.547Z,27.77
2022-08-10T20:56:19.573Z,27.76
2022-08-10T20:58:52.574Z,27.75
2022-08-10T21:01:25.698Z,27.74
2022-08-10T21:03:58.878Z,27.73
2022-08-10T21:06:42.952Z,27.72
2022-08-10T21:09:04.704Z,27.70
2022-08-10T21:11:37.658Z,27.69
2022-08-10T21:14:10.578Z,27.68
2022-08-10T21:16:47.515Z,27.66
2022-08-10T21:19:16.996Z,27.65
2022-08-10T21:21:56.517Z,27.64
2022-08-10T21:24:22.912Z,27.63
2022-08-10T21:26:55.991Z,27.61
2022-08-10T21:29:39.792Z,27.60
2022-08-10T21:32:01.914Z,27.59
2022-08-10T21:34:34.868Z,27.58
2022-08-10T21:37:08.217Z,27.57
2022-08-10T21:39:43.098Z,27.56
2022-08-10T21:42:14.839Z,27.55
2022-08-10T21:44:49.338Z,27.53
2022-08-10T21:47:31.065Z,27.52
2022-08-10T21:49:52.773Z,27.51
2022-08-10T21:52:25.607Z,27.50
2022-08-10T21:54:58.736Z,27.49
2022-08-10T21:57:43.155Z,27.48
2022-08-10T22:00:04.765Z,27.46
2022-08-10T22:02:37.941Z,27.45
2022-08-10T22:05:10.949Z,27.44
2022-08-10T22:07:43.946Z,27.42
2022-08-10T22:10:16.991Z,27.41
2022-08-10T22:12:49.903Z,27.40
2022-08-10T22:15:23.021Z,27.39
2022-08-10T22:18:04.520Z,27.38
2022-08-10T22:20:28.967Z,27.37
2022-08-10T22:23:01.897Z,27.36
2022-08-10T22:25:35.003Z,27.35
2022-08-10T22:28:12.411Z,27.34
2022-08-10T22:30:40.778Z,27.33
2022-08-10T22:36:04.002Z,27.32
2022-08-10T22:38:37.042Z,27.31
2022-08-10T22:41:09.998Z,27.30
2022-08-10T22:43:43.042Z,27.29
2022-08-10T22:46:16.010Z,27.29
2022-08-10T22:48:50.148Z,27.28
2022-08-10T22:51:22.005Z,27.27
2022-08-10T22:53:55.017Z,27.27
2022-08-10T22:56:27.994Z,27.26
2022-08-10T22:59:01.082Z,27.25
2022-08-10T23:01:33.980Z,27.25
2022-08-10T23:04:07.094Z,27.24
2022-08-10T23:06:39.947Z,27.23
2022-08-10T23:09:16.049Z,27.22
2022-08-10T23:11:49.024Z,27.21
2022-08-10T23:14:22.051Z,27.20
2022-08-10T23:16:54.967Z,27.19
2022-08-10T23:19:28.064Z,27.18
2022-08-10T23:22:04.444Z,27.17
2022-08-10T23:24:34.077Z,27.16
2022-08-10T23:27:09.113Z,27.15
2022-08-10T23:29:40.038Z,27.14
2022-08-10T23:32:13.111Z,27.13
2022-08-10T23:34:46.041Z,27.11
2022-08-10T23:37:19.132Z,27.10
2022-08-10T23:39:52.175Z,27.09
2022-08-10T23:42:25.128Z,27.09
2022-08-10T23:44:58.045Z,27.08
2022-08-10T23:47:31.138Z,27.07
2022-08-10T23:50:03.899Z,27.06
2022-08-10T23:52:37.345Z,27.05
2022-08-10T23:55:12.982Z,27.03
2022-08-10T23:57:46.037Z,27.02
